sensor_id;sensor_type;location;lat;lon;timestamp;P1;durP1;ratioP1;P2;durP2;ratioP2
11123;SDS011;5616;42.692;23.312;2023-07-09T00:00:11;4.53;;;2.77;;
11123;SDS011;5616;42.692;23.312;2023-07-09T00:02:41;6.40;;;2.63;;
11123;SDS011;5616;42.692;23.312;2023-07-09T00:05:09;5.10;;;2.97;;
11123;SDS011;5616;42.692;23.312;2023-07-09T00:07:39;6.00;;;2.83;;
11123;SDS011;5616;42.692;23.312;2023-07-09T00:10:08;5.63;;;2.80;;
11123;SDS011;5616;42.692;23.312;2023-07-09T00:12:43;5.13;;;2.70;;
11123;SDS011;5616;42.692;23.312;2023-07-09T00:15:10;3.77;;;2.57;;
11123;SDS011;5616;42.692;23.312;2023-07-09T00:17:37;4.23;;;2.77;;
11123;SDS011;5616;42.692;23.312;2023-07-09T00:20:05;7.23;;;2.70;;
11123;SDS011;5616;42.692;23.312;2023-07-09T00:22:38;4.03;;;2.50;;
11123;SDS011;5616;42.692;23.312;2023-07-09T00:25:05;5.50;;;2.70;;
11123;SDS011;5616;42.692;23.312;2023-07-09T00:27:33;3.95;;;2.65;;
11123;SDS011;5616;42.692;23.312;2023-07-09T00:30:03;5.70;;;2.70;;
11123;SDS011;5616;42.692;23.312;2023-07-09T00:32:30;2.60;;;2.40;;
11123;SDS011;5616;42.692;23.312;2023-07-09T00:34:58;3.33;;;2.50;;
11123;SDS011;5616;42.692;23.312;2023-07-09T00:37:25;7.63;;;2.57;;
11123;SDS011;5616;42.692;23.312;2023-07-09T00:39:52;5.77;;;2.63;;
11123;SDS011;5616;42.692;23.312;2023-07-09T00:42:19;7.60;;;2.60;;
11123;SDS011;5616;42.692;23.312;2023-07-09T00:44:50;4.00;;;2.50;;
11123;SDS011;5616;42.692;23.312;2023-07-09T00:47:21;6.17;;;2.90;;
11123;SDS011;5616;42.692;23.312;2023-07-09T00:49:59;5.25;;;2.83;;
11123;SDS011;5616;42.692;23.312;2023-07-09T00:52:40;5.77;;;2.50;;
11123;SDS011;5616;42.692;23.312;2023-07-09T00:55:13;5.43;;;2.80;;
11123;SDS011;5616;42.692;23.312;2023-07-09T00:57:44;4.13;;;2.80;;
11123;SDS011;5616;42.692;23.312;2023-07-09T01:00:21;8.70;;;2.60;;
11123;SDS011;5616;42.692;23.312;2023-07-09T01:02:54;5.33;;;2.80;;
11123;SDS011;5616;42.692;23.312;2023-07-09T01:05:23;3.30;;;2.50;;
11123;SDS011;5616;42.692;23.312;2023-07-09T01:07:50;6.20;;;2.77;;
11123;SDS011;5616;42.692;23.312;2023-07-09T01:10:18;3.80;;;2.73;;
11123;SDS011;5616;42.692;23.312;2023-07-09T01:12:45;5.03;;;3.07;;
11123;SDS011;5616;42.692;23.312;2023-07-09T01:15:15;4.77;;;2.63;;
11123;SDS011;5616;42.692;23.312;2023-07-09T01:17:42;3.33;;;2.40;;
11123;SDS011;5616;42.692;23.312;2023-07-09T01:20:16;5.63;;;2.50;;
11123;SDS011;5616;42.692;23.312;2023-07-09T01:22:49;6.40;;;3.20;;
11123;SDS011;5616;42.692;23.312;2023-07-09T01:25:20;5.40;;;2.80;;
11123;SDS011;5616;42.692;23.312;2023-07-09T01:27:47;4.17;;;2.50;;
11123;SDS011;5616;42.692;23.312;2023-07-09T01:30:17;4.97;;;2.90;;
11123;SDS011;5616;42.692;23.312;2023-07-09T01:32:48;5.50;;;2.57;;
11123;SDS011;5616;42.692;23.312;2023-07-09T01:35:17;5.93;;;2.73;;
11123;SDS011;5616;42.692;23.312;2023-07-09T01:37:45;4.37;;;2.60;;
11123;SDS011;5616;42.692;23.312;2023-07-09T01:40:15;5.50;;;2.80;;
11123;SDS011;5616;42.692;23.312;2023-07-09T01:42:43;5.77;;;2.60;;
11123;SDS011;5616;42.692;23.312;2023-07-09T01:45:10;4.87;;;2.80;;
11123;SDS011;5616;42.692;23.312;2023-07-09T01:47:38;2.67;;;2.37;;
11123;SDS011;5616;42.692;23.312;2023-07-09T01:50:06;5.17;;;2.43;;
11123;SDS011;5616;42.692;23.312;2023-07-09T01:52:34;4.63;;;3.10;;
11123;SDS011;5616;42.692;23.312;2023-07-09T01:58:08;5.27;;;2.50;;
11123;SDS011;5616;42.692;23.312;2023-07-09T02:00:36;3.80;;;2.80;;
11123;SDS011;5616;42.692;23.312;2023-07-09T02:03:06;5.47;;;2.70;;
11123;SDS011;5616;42.692;23.312;2023-07-09T02:05:35;3.67;;;2.50;;
11123;SDS011;5616;42.692;23.312;2023-07-09T02:08:02;6.47;;;2.78;;
11123;SDS011;5616;42.692;23.312;2023-07-09T02:10:30;6.93;;;2.93;;
11123;SDS011;5616;42.692;23.312;2023-07-09T02:13:00;7.07;;;2.63;;
11123;SDS011;5616;42.692;23.312;2023-07-09T02:15:26;3.13;;;2.60;;
11123;SDS011;5616;42.692;23.312;2023-07-09T02:17:55;6.17;;;3.00;;
11123;SDS011;5616;42.692;23.312;2023-07-09T02:20:24;3.93;;;3.00;;
11123;SDS011;5616;42.692;23.312;2023-07-09T02:22:51;7.53;;;3.40;;
11123;SDS011;5616;42.692;23.312;2023-07-09T02:25:18;4.07;;;2.77;;
11123;SDS011;5616;42.692;23.312;2023-07-09T02:27:45;4.30;;;3.40;;
11123;SDS011;5616;42.692;23.312;2023-07-09T02:30:13;7.73;;;3.47;;
11123;SDS011;5616;42.692;23.312;2023-07-09T02:32:40;6.43;;;3.87;;
11123;SDS011;5616;42.692;23.312;2023-07-09T02:35:07;7.07;;;5.00;;
11123;SDS011;5616;42.692;23.312;2023-07-09T02:37:34;8.47;;;5.20;;
11123;SDS011;5616;42.692;23.312;2023-07-09T02:40:01;7.13;;;4.53;;
11123;SDS011;5616;42.692;23.312;2023-07-09T02:42:30;9.07;;;4.40;;
11123;SDS011;5616;42.692;23.312;2023-07-09T02:44:58;4.93;;;3.50;;
11123;SDS011;5616;42.692;23.312;2023-07-09T02:47:27;4.43;;;3.50;;
11123;SDS011;5616;42.692;23.312;2023-07-09T02:49:56;6.37;;;3.67;;
11123;SDS011;5616;42.692;23.312;2023-07-09T02:52:23;5.40;;;3.53;;
11123;SDS011;5616;42.692;23.312;2023-07-09T02:54:50;4.50;;;3.20;;
11123;SDS011;5616;42.692;23.312;2023-07-09T02:57:17;3.37;;;2.90;;
11123;SDS011;5616;42.692;23.312;2023-07-09T02:59:44;7.93;;;3.20;;
11123;SDS011;5616;42.692;23.312;2023-07-09T03:02:11;4.03;;;3.30;;
11123;SDS011;5616;42.692;23.312;2023-07-09T03:04:39;3.70;;;3.33;;
11123;SDS011;5616;42.692;23.312;2023-07-09T03:07:06;9.63;;;3.40;;
11123;SDS011;5616;42.692;23.312;2023-07-09T03:09:32;8.03;;;3.30;;
11123;SDS011;5616;42.692;23.312;2023-07-09T03:11:59;9.43;;;3.00;;
11123;SDS011;5616;42.692;23.312;2023-07-09T03:14:26;6.43;;;3.20;;
11123;SDS011;5616;42.692;23.312;2023-07-09T03:16:53;9.90;;;3.73;;
11123;SDS011;5616;42.692;23.312;2023-07-09T03:19:21;5.07;;;3.20;;
11123;SDS011;5616;42.692;23.312;2023-07-09T03:21:49;4.00;;;3.40;;
11123;SDS011;5616;42.692;23.312;2023-07-09T03:24:16;5.40;;;3.30;;
11123;SDS011;5616;42.692;23.312;2023-07-09T03:26:43;5.63;;;3.30;;
11123;SDS011;5616;42.692;23.312;2023-07-09T03:29:10;6.33;;;3.77;;
11123;SDS011;5616;42.692;23.312;2023-07-09T03:31:37;8.37;;;3.70;;
11123;SDS011;5616;42.692;23.312;2023-07-09T03:34:04;4.40;;;3.50;;
11123;SDS011;5616;42.692;23.312;2023-07-09T03:36:31;5.73;;;3.60;;
11123;SDS011;5616;42.692;23.312;2023-07-09T03:38:59;8.53;;;3.67;;
11123;SDS011;5616;42.692;23.312;2023-07-09T03:41:26;7.50;;;3.20;;
11123;SDS011;5616;42.692;23.312;2023-07-09T03:43:52;11.70;;;3.60;;
11123;SDS011;5616;42.692;23.312;2023-07-09T03:46:20;7.23;;;3.27;;
11123;SDS011;5616;42.692;23.312;2023-07-09T03:48:47;4.13;;;3.53;;
11123;SDS011;5616;42.692;23.312;2023-07-09T03:51:15;8.27;;;3.43;;
11123;SDS011;5616;42.692;23.312;2023-07-09T03:53:42;6.47;;;3.90;;
11123;SDS011;5616;42.692;23.312;2023-07-09T03:56:11;4.50;;;3.60;;
11123;SDS011;5616;42.692;23.312;2023-07-09T03:58:37;5.80;;;4.03;;
11123;SDS011;5616;42.692;23.312;2023-07-09T04:01:04;6.60;;;3.57;;
11123;SDS011;5616;42.692;23.312;2023-07-09T04:03:31;6.83;;;3.63;;
11123;SDS011;5616;42.692;23.312;2023-07-09T04:05:58;8.93;;;3.40;;
11123;SDS011;5616;42.692;23.312;2023-07-09T04:08:25;7.73;;;3.57;;
11123;SDS011;5616;42.692;23.312;2023-07-09T04:10:52;6.03;;;3.63;;
11123;SDS011;5616;42.692;23.312;2023-07-09T04:13:21;6.73;;;3.40;;
11123;SDS011;5616;42.692;23.312;2023-07-09T04:15:47;5.10;;;3.27;;
11123;SDS011;5616;42.692;23.312;2023-07-09T04:18:15;8.30;;;3.63;;
11123;SDS011;5616;42.692;23.312;2023-07-09T04:20:41;6.07;;;3.47;;
11123;SDS011;5616;42.692;23.312;2023-07-09T04:23:08;8.13;;;3.50;;
11123;SDS011;5616;42.692;23.312;2023-07-09T04:25:36;6.30;;;3.60;;
11123;SDS011;5616;42.692;23.312;2023-07-09T04:28:04;6.80;;;3.77;;
11123;SDS011;5616;42.692;23.312;2023-07-09T04:30:33;4.00;;;3.50;;
11123;SDS011;5616;42.692;23.312;2023-07-09T04:32:59;6.47;;;3.80;;
11123;SDS011;5616;42.692;23.312;2023-07-09T04:35:26;7.40;;;3.70;;
11123;SDS011;5616;42.692;23.312;2023-07-09T04:37:53;6.03;;;3.60;;
11123;SDS011;5616;42.692;23.312;2023-07-09T04:40:20;6.00;;;4.03;;
11123;SDS011;5616;42.692;23.312;2023-07-09T04:42:47;6.20;;;3.30;;
11123;SDS011;5616;42.692;23.312;2023-07-09T04:45:13;8.70;;;3.30;;
11123;SDS011;5616;42.692;23.312;2023-07-09T04:47:42;3.40;;;3.10;;
11123;SDS011;5616;42.692;23.312;2023-07-09T04:50:09;6.07;;;3.27;;
11123;SDS011;5616;42.692;23.312;2023-07-09T04:52:37;6.43;;;3.43;;
11123;SDS011;5616;42.692;23.312;2023-07-09T04:55:04;6.57;;;3.40;;
11123;SDS011;5616;42.692;23.312;2023-07-09T04:57:32;5.90;;;3.87;;
11123;SDS011;5616;42.692;23.312;2023-07-09T04:59:59;6.20;;;3.37;;
11123;SDS011;5616;42.692;23.312;2023-07-09T05:02:26;8.37;;;3.23;;
11123;SDS011;5616;42.692;23.312;2023-07-09T05:04:54;7.97;;;3.40;;
11123;SDS011;5616;42.692;23.312;2023-07-09T05:07:21;6.57;;;3.30;;
11123;SDS011;5616;42.692;23.312;2023-07-09T05:09:48;6.37;;;3.40;;
11123;SDS011;5616;42.692;23.312;2023-07-09T05:12:15;6.43;;;3.63;;
11123;SDS011;5616;42.692;23.312;2023-07-09T05:14:42;8.80;;;3.47;;
11123;SDS011;5616;42.692;23.312;2023-07-09T05:17:09;4.70;;;3.00;;
11123;SDS011;5616;42.692;23.312;2023-07-09T05:19:36;7.40;;;3.30;;
11123;SDS011;5616;42.692;23.312;2023-07-09T05:22:04;7.47;;;3.47;;
11123;SDS011;5616;42.692;23.312;2023-07-09T05:24:31;5.13;;;3.30;;
11123;SDS011;5616;42.692;23.312;2023-07-09T05:26:58;5.33;;;3.53;;
11123;SDS011;5616;42.692;23.312;2023-07-09T05:29:24;5.03;;;3.13;;
11123;SDS011;5616;42.692;23.312;2023-07-09T05:31:52;3.50;;;3.00;;
11123;SDS011;5616;42.692;23.312;2023-07-09T05:34:18;5.82;;;3.00;;
11123;SDS011;5616;42.692;23.312;2023-07-09T05:36:46;5.00;;;2.90;;
11123;SDS011;5616;42.692;23.312;2023-07-09T05:39:14;3.25;;;2.95;;
11123;SDS011;5616;42.692;23.312;2023-07-09T05:41:42;8.60;;;3.05;;
11123;SDS011;5616;42.692;23.312;2023-07-09T05:44:08;6.00;;;3.20;;
11123;SDS011;5616;42.692;23.312;2023-07-09T05:46:35;8.20;;;3.40;;
11123;SDS011;5616;42.692;23.312;2023-07-09T05:49:03;6.38;;;2.95;;
11123;SDS011;5616;42.692;23.312;2023-07-09T05:51:30;3.38;;;2.80;;
11123;SDS011;5616;42.692;23.312;2023-07-09T05:53:57;8.63;;;3.30;;
11123;SDS011;5616;42.692;23.312;2023-07-09T05:56:25;6.82;;;2.90;;
11123;SDS011;5616;42.692;23.312;2023-07-09T05:58:52;7.20;;;3.67;;
11123;SDS011;5616;42.692;23.312;2023-07-09T06:01:19;7.40;;;2.90;;
11123;SDS011;5616;42.692;23.312;2023-07-09T06:03:46;4.82;;;3.20;;
11123;SDS011;5616;42.692;23.312;2023-07-09T06:06:14;6.32;;;3.20;;
11123;SDS011;5616;42.692;23.312;2023-07-09T06:08:41;4.40;;;3.00;;
11123;SDS011;5616;42.692;23.312;2023-07-09T06:11:08;10.25;;;3.30;;
11123;SDS011;5616;42.692;23.312;2023-07-09T06:13:36;7.65;;;3.63;;
11123;SDS011;5616;42.692;23.312;2023-07-09T06:16:03;4.68;;;3.40;;
11123;SDS011;5616;42.692;23.312;2023-07-09T06:18:31;6.50;;;2.97;;
11123;SDS011;5616;42.692;23.312;2023-07-09T06:21:01;5.85;;;3.00;;
11123;SDS011;5616;42.692;23.312;2023-07-09T06:23:29;4.65;;;2.78;;
11123;SDS011;5616;42.692;23.312;2023-07-09T06:25:56;3.55;;;3.08;;
11123;SDS011;5616;42.692;23.312;2023-07-09T06:28:23;7.97;;;3.40;;
11123;SDS011;5616;42.692;23.312;2023-07-09T06:30:55;3.92;;;2.80;;
11123;SDS011;5616;42.692;23.312;2023-07-09T06:33:22;4.13;;;3.00;;
11123;SDS011;5616;42.692;23.312;2023-07-09T06:35:51;3.65;;;2.88;;
11123;SDS011;5616;42.692;23.312;2023-07-09T06:38:19;4.53;;;2.90;;
11123;SDS011;5616;42.692;23.312;2023-07-09T06:40:46;5.82;;;2.97;;
11123;SDS011;5616;42.692;23.312;2023-07-09T06:43:13;4.55;;;2.80;;
11123;SDS011;5616;42.692;23.312;2023-07-09T06:45:49;2.92;;;2.40;;
11123;SDS011;5616;42.692;23.312;2023-07-09T06:48:18;3.67;;;2.67;;
11123;SDS011;5616;42.692;23.312;2023-07-09T06:50:48;2.78;;;2.38;;
11123;SDS011;5616;42.692;23.312;2023-07-09T06:53:15;3.58;;;2.50;;
11123;SDS011;5616;42.692;23.312;2023-07-09T06:55:42;4.45;;;2.50;;
11123;SDS011;5616;42.692;23.312;2023-07-09T06:58:09;5.75;;;2.40;;
11123;SDS011;5616;42.692;23.312;2023-07-09T07:00:36;6.63;;;2.40;;
11123;SDS011;5616;42.692;23.312;2023-07-09T07:03:04;2.47;;;2.20;;
11123;SDS011;5616;42.692;23.312;2023-07-09T07:05:33;3.42;;;2.30;;
11123;SDS011;5616;42.692;23.312;2023-07-09T07:08:00;6.32;;;2.42;;
11123;SDS011;5616;42.692;23.312;2023-07-09T07:10:28;3.65;;;2.22;;
11123;SDS011;5616;42.692;23.312;2023-07-09T07:12:55;3.15;;;2.10;;
11123;SDS011;5616;42.692;23.312;2023-07-09T07:15:22;2.33;;;2.03;;
11123;SDS011;5616;42.692;23.312;2023-07-09T07:17:49;2.97;;;2.22;;
11123;SDS011;5616;42.692;23.312;2023-07-09T07:20:16;3.63;;;2.30;;
11123;SDS011;5616;42.692;23.312;2023-07-09T07:22:44;2.20;;;2.00;;
11123;SDS011;5616;42.692;23.312;2023-07-09T07:25:11;5.72;;;2.45;;
11123;SDS011;5616;42.692;23.312;2023-07-09T07:27:38;3.75;;;2.15;;
11123;SDS011;5616;42.692;23.312;2023-07-09T07:30:06;3.95;;;2.00;;
11123;SDS011;5616;42.692;23.312;2023-07-09T07:32:34;3.88;;;2.10;;
11123;SDS011;5616;42.692;23.312;2023-07-09T07:35:04;2.47;;;2.15;;
11123;SDS011;5616;42.692;23.312;2023-07-09T07:37:31;4.78;;;2.00;;
11123;SDS011;5616;42.692;23.312;2023-07-09T07:40:00;4.15;;;2.10;;
11123;SDS011;5616;42.692;23.312;2023-07-09T07:42:27;5.70;;;2.30;;
11123;SDS011;5616;42.692;23.312;2023-07-09T07:44:54;2.85;;;1.90;;
11123;SDS011;5616;42.692;23.312;2023-07-09T07:47:20;2.95;;;2.00;;
11123;SDS011;5616;42.692;23.312;2023-07-09T07:49:47;4.22;;;2.20;;
11123;SDS011;5616;42.692;23.312;2023-07-09T07:52:14;4.70;;;2.17;;
11123;SDS011;5616;42.692;23.312;2023-07-09T07:54:41;3.30;;;2.13;;
11123;SDS011;5616;42.692;23.312;2023-07-09T07:57:09;2.92;;;2.10;;
11123;SDS011;5616;42.692;23.312;2023-07-09T07:59:36;2.50;;;2.00;;
11123;SDS011;5616;42.692;23.312;2023-07-09T08:02:04;3.35;;;2.45;;
11123;SDS011;5616;42.692;23.312;2023-07-09T08:04:32;4.22;;;2.28;;
11123;SDS011;5616;42.692;23.312;2023-07-09T08:06:59;2.75;;;2.05;;
11123;SDS011;5616;42.692;23.312;2023-07-09T08:09:26;3.78;;;1.80;;
11123;SDS011;5616;42.692;23.312;2023-07-09T08:11:53;3.10;;;2.25;;
11123;SDS011;5616;42.692;23.312;2023-07-09T08:14:21;4.53;;;2.35;;
11123;SDS011;5616;42.692;23.312;2023-07-09T08:16:48;2.80;;;2.05;;
11123;SDS011;5616;42.692;23.312;2023-07-09T08:19:18;5.07;;;2.50;;
11123;SDS011;5616;42.692;23.312;2023-07-09T08:21:45;3.85;;;2.40;;
11123;SDS011;5616;42.692;23.312;2023-07-09T08:24:12;3.88;;;2.50;;
11123;SDS011;5616;42.692;23.312;2023-07-09T08:26:39;3.25;;;2.20;;
11123;SDS011;5616;42.692;23.312;2023-07-09T08:29:06;2.95;;;2.30;;
11123;SDS011;5616;42.692;23.312;2023-07-09T08:31:34;2.40;;;2.00;;
11123;SDS011;5616;42.692;23.312;2023-07-09T08:34:01;4.28;;;2.35;;
11123;SDS011;5616;42.692;23.312;2023-07-09T08:36:28;3.22;;;2.15;;
11123;SDS011;5616;42.692;23.312;2023-07-09T08:38:55;3.15;;;2.40;;
11123;SDS011;5616;42.692;23.312;2023-07-09T08:41:29;4.03;;;2.53;;
11123;SDS011;5616;42.692;23.312;2023-07-09T08:44:07;5.95;;;2.58;;
11123;SDS011;5616;42.692;23.312;2023-07-09T08:46:47;2.75;;;2.50;;
11123;SDS011;5616;42.692;23.312;2023-07-09T08:49:29;2.47;;;2.28;;
11123;SDS011;5616;42.692;23.312;2023-07-09T08:52:03;3.42;;;2.13;;
11123;SDS011;5616;42.692;23.312;2023-07-09T08:54:36;2.78;;;2.20;;
11123;SDS011;5616;42.692;23.312;2023-07-09T08:57:07;3.60;;;2.15;;
11123;SDS011;5616;42.692;23.312;2023-07-09T08:59:43;2.92;;;2.42;;
11123;SDS011;5616;42.692;23.312;2023-07-09T09:02:16;3.70;;;2.50;;
11123;SDS011;5616;42.692;23.312;2023-07-09T09:04:52;4.00;;;2.40;;
11123;SDS011;5616;42.692;23.312;2023-07-09T09:07:20;2.85;;;2.42;;
11123;SDS011;5616;42.692;23.312;2023-07-09T09:09:58;3.72;;;2.40;;
11123;SDS011;5616;42.692;23.312;2023-07-09T09:12:28;4.63;;;2.55;;
11123;SDS011;5616;42.692;23.312;2023-07-09T09:15:02;4.82;;;2.78;;
11123;SDS011;5616;42.692;23.312;2023-07-09T09:17:39;3.40;;;2.70;;
11123;SDS011;5616;42.692;23.312;2023-07-09T09:20:08;2.55;;;2.35;;
11123;SDS011;5616;42.692;23.312;2023-07-09T09:22:40;2.85;;;2.50;;
11123;SDS011;5616;42.692;23.312;2023-07-09T09:25:15;2.85;;;2.40;;
11123;SDS011;5616;42.692;23.312;2023-07-09T09:27:46;3.85;;;2.50;;
11123;SDS011;5616;42.692;23.312;2023-07-09T09:30:13;4.43;;;2.60;;
11123;SDS011;5616;42.692;23.312;2023-07-09T09:32:43;3.50;;;2.95;;
11123;SDS011;5616;42.692;23.312;2023-07-09T09:35:12;2.72;;;2.53;;
11123;SDS011;5616;42.692;23.312;2023-07-09T09:37:44;3.30;;;3.00;;
11123;SDS011;5616;42.692;23.312;2023-07-09T09:40:17;2.67;;;2.35;;
11123;SDS011;5616;42.692;23.312;2023-07-09T09:42:44;4.20;;;2.67;;
11123;SDS011;5616;42.692;23.312;2023-07-09T09:45:11;4.65;;;2.65;;
11123;SDS011;5616;42.692;23.312;2023-07-09T09:47:43;2.75;;;2.55;;
11123;SDS011;5616;42.692;23.312;2023-07-09T09:50:12;3.42;;;3.10;;
11123;SDS011;5616;42.692;23.312;2023-07-09T09:52:40;3.90;;;2.70;;
11123;SDS011;5616;42.692;23.312;2023-07-09T09:55:09;5.25;;;3.08;;
11123;SDS011;5616;42.692;23.312;2023-07-09T09:57:38;3.83;;;3.03;;
11123;SDS011;5616;42.692;23.312;2023-07-09T10:00:05;5.95;;;3.30;;
11123;SDS011;5616;42.692;23.312;2023-07-09T10:02:40;3.33;;;2.85;;
11123;SDS011;5616;42.692;23.312;2023-07-09T10:05:10;3.50;;;3.05;;
11123;SDS011;5616;42.692;23.312;2023-07-09T10:07:39;4.55;;;2.95;;
11123;SDS011;5616;42.692;23.312;2023-07-09T10:10:15;5.15;;;3.53;;
11123;SDS011;5616;42.692;23.312;2023-07-09T10:12:49;5.95;;;3.15;;
11123;SDS011;5616;42.692;23.312;2023-07-09T10:15:24;3.33;;;3.00;;
11123;SDS011;5616;42.692;23.312;2023-07-09T10:18:00;4.50;;;3.15;;
11123;SDS011;5616;42.692;23.312;2023-07-09T10:20:34;4.30;;;2.90;;
11123;SDS011;5616;42.692;23.312;2023-07-09T10:23:07;4.90;;;3.30;;
11123;SDS011;5616;42.692;23.312;2023-07-09T10:25:46;3.25;;;2.60;;
11123;SDS011;5616;42.692;23.312;2023-07-09T10:28:28;4.50;;;2.85;;
11123;SDS011;5616;42.692;23.312;2023-07-09T10:31:10;3.70;;;2.92;;
11123;SDS011;5616;42.692;23.312;2023-07-09T10:33:50;2.92;;;2.72;;
11123;SDS011;5616;42.692;23.312;2023-07-09T10:36:34;3.83;;;2.42;;
11123;SDS011;5616;42.692;23.312;2023-07-09T10:39:13;4.03;;;3.05;;
11123;SDS011;5616;42.692;23.312;2023-07-09T10:41:43;5.85;;;3.00;;
11123;SDS011;5616;42.692;23.312;2023-07-09T10:44:11;5.03;;;3.30;;
11123;SDS011;5616;42.692;23.312;2023-07-09T10:46:43;3.35;;;3.00;;
11123;SDS011;5616;42.692;23.312;2023-07-09T10:49:15;3.20;;;2.90;;
11123;SDS011;5616;42.692;23.312;2023-07-09T10:51:48;3.35;;;2.78;;
11123;SDS011;5616;42.692;23.312;2023-07-09T10:54:21;4.15;;;2.95;;
11123;SDS011;5616;42.692;23.312;2023-07-09T10:56:56;6.00;;;3.17;;
11123;SDS011;5616;42.692;23.312;2023-07-09T10:59:29;3.30;;;3.00;;
11123;SDS011;5616;42.692;23.312;2023-07-09T11:02:01;4.00;;;2.90;;
11123;SDS011;5616;42.692;23.312;2023-07-09T11:04:43;3.33;;;3.00;;
11123;SDS011;5616;42.692;23.312;2023-07-09T11:07:15;3.15;;;2.70;;
11123;SDS011;5616;42.692;23.312;2023-07-09T11:09:48;5.15;;;2.78;;
11123;SDS011;5616;42.692;23.312;2023-07-09T11:12:23;5.45;;;2.83;;
11123;SDS011;5616;42.692;23.312;2023-07-09T11:14:56;5.88;;;3.00;;
11123;SDS011;5616;42.692;23.312;2023-07-09T11:17:26;4.07;;;2.80;;
11123;SDS011;5616;42.692;23.312;2023-07-09T11:19:56;6.82;;;3.08;;
11123;SDS011;5616;42.692;23.312;2023-07-09T11:22:27;3.92;;;2.80;;
11123;SDS011;5616;42.692;23.312;2023-07-09T11:25:07;2.67;;;2.47;;
11123;SDS011;5616;42.692;23.312;2023-07-09T11:27:44;3.05;;;2.75;;
11123;SDS011;5616;42.692;23.312;2023-07-09T11:30:18;4.15;;;2.58;;
11123;SDS011;5616;42.692;23.312;2023-07-09T11:32:47;3.80;;;2.60;;
11123;SDS011;5616;42.692;23.312;2023-07-09T11:35:20;3.70;;;2.47;;
11123;SDS011;5616;42.692;23.312;2023-07-09T11:37:50;4.47;;;2.75;;
11123;SDS011;5616;42.692;23.312;2023-07-09T11:40:18;4.43;;;2.88;;
11123;SDS011;5616;42.692;23.312;2023-07-09T11:42:47;5.20;;;2.95;;
11123;SDS011;5616;42.692;23.312;2023-07-09T11:45:17;2.63;;;2.42;;
11123;SDS011;5616;42.692;23.312;2023-07-09T11:47:49;2.72;;;2.53;;
11123;SDS011;5616;42.692;23.312;2023-07-09T11:50:22;4.13;;;2.67;;
11123;SDS011;5616;42.692;23.312;2023-07-09T11:52:54;3.00;;;2.80;;
11123;SDS011;5616;42.692;23.312;2023-07-09T11:55:27;3.47;;;2.83;;
11123;SDS011;5616;42.692;23.312;2023-07-09T11:57:59;3.63;;;2.53;;
11123;SDS011;5616;42.692;23.312;2023-07-09T12:00:28;4.28;;;2.45;;
11123;SDS011;5616;42.692;23.312;2023-07-09T12:03:03;5.35;;;2.92;;
11123;SDS011;5616;42.692;23.312;2023-07-09T12:05:30;5.95;;;2.72;;
11123;SDS011;5616;42.692;23.312;2023-07-09T12:07:58;5.43;;;2.90;;
11123;SDS011;5616;42.692;23.312;2023-07-09T12:10:27;3.15;;;2.53;;
11123;SDS011;5616;42.692;23.312;2023-07-09T12:12:59;3.38;;;2.63;;
11123;SDS011;5616;42.692;23.312;2023-07-09T12:15:29;4.18;;;2.50;;
11123;SDS011;5616;42.692;23.312;2023-07-09T12:17:57;5.00;;;2.70;;
11123;SDS011;5616;42.692;23.312;2023-07-09T12:20:25;2.97;;;2.53;;
11123;SDS011;5616;42.692;23.312;2023-07-09T12:22:56;3.33;;;2.55;;
11123;SDS011;5616;42.692;23.312;2023-07-09T12:25:25;4.90;;;2.92;;
11123;SDS011;5616;42.692;23.312;2023-07-09T12:27:53;4.50;;;2.60;;
11123;SDS011;5616;42.692;23.312;2023-07-09T12:30:20;4.35;;;2.78;;
11123;SDS011;5616;42.692;23.312;2023-07-09T12:32:48;3.90;;;2.38;;
11123;SDS011;5616;42.692;23.312;2023-07-09T12:35:20;4.22;;;2.83;;
11123;SDS011;5616;42.692;23.312;2023-07-09T12:37:48;2.83;;;2.50;;
11123;SDS011;5616;42.692;23.312;2023-07-09T12:40:20;3.58;;;2.97;;
11123;SDS011;5616;42.692;23.312;2023-07-09T12:42:49;4.53;;;2.78;;
11123;SDS011;5616;42.692;23.312;2023-07-09T12:45:17;4.93;;;2.70;;
11123;SDS011;5616;42.692;23.312;2023-07-09T12:47:46;3.05;;;2.67;;
11123;SDS011;5616;42.692;23.312;2023-07-09T12:50:17;4.00;;;2.55;;
11123;SDS011;5616;42.692;23.312;2023-07-09T12:52:47;2.85;;;2.45;;
11123;SDS011;5616;42.692;23.312;2023-07-09T12:55:21;4.18;;;2.67;;
11123;SDS011;5616;42.692;23.312;2023-07-09T12:57:51;2.88;;;2.50;;
11123;SDS011;5616;42.692;23.312;2023-07-09T13:00:21;4.57;;;2.30;;
11123;SDS011;5616;42.692;23.312;2023-07-09T13:02:52;2.63;;;2.40;;
11123;SDS011;5616;42.692;23.312;2023-07-09T13:05:21;3.40;;;2.38;;
11123;SDS011;5616;42.692;23.312;2023-07-09T13:07:50;4.97;;;2.45;;
11123;SDS011;5616;42.692;23.312;2023-07-09T13:10:19;3.75;;;2.60;;
11123;SDS011;5616;42.692;23.312;2023-07-09T13:12:53;5.65;;;2.80;;
11123;SDS011;5616;42.692;23.312;2023-07-09T13:15:25;9.45;;;2.50;;
11123;SDS011;5616;42.692;23.312;2023-07-09T13:17:58;3.25;;;2.40;;
11123;SDS011;5616;42.692;23.312;2023-07-09T13:20:26;5.97;;;2.50;;
11123;SDS011;5616;42.692;23.312;2023-07-09T13:22:53;3.55;;;2.70;;
11123;SDS011;5616;42.692;23.312;2023-07-09T13:25:21;3.28;;;2.63;;
11123;SDS011;5616;42.692;23.312;2023-07-09T13:27:48;4.22;;;2.50;;
11123;SDS011;5616;42.692;23.312;2023-07-09T13:30:16;3.28;;;2.90;;
11123;SDS011;5616;42.692;23.312;2023-07-09T13:32:44;3.35;;;2.63;;
11123;SDS011;5616;42.692;23.312;2023-07-09T13:35:13;3.97;;;2.55;;
11123;SDS011;5616;42.692;23.312;2023-07-09T13:37:42;4.55;;;2.97;;
11123;SDS011;5616;42.692;23.312;2023-07-09T13:40:09;4.38;;;2.70;;
11123;SDS011;5616;42.692;23.312;2023-07-09T13:42:39;5.07;;;2.58;;
11123;SDS011;5616;42.692;23.312;2023-07-09T13:45:17;3.58;;;2.40;;
11123;SDS011;5616;42.692;23.312;2023-07-09T13:47:45;3.35;;;2.50;;
11123;SDS011;5616;42.692;23.312;2023-07-09T13:50:13;4.95;;;2.45;;
11123;SDS011;5616;42.692;23.312;2023-07-09T13:52:41;5.57;;;2.97;;
11123;SDS011;5616;42.692;23.312;2023-07-09T13:55:14;7.43;;;2.65;;
11123;SDS011;5616;42.692;23.312;2023-07-09T13:57:43;3.25;;;2.60;;
11123;SDS011;5616;42.692;23.312;2023-07-09T14:00:11;3.80;;;2.53;;
11123;SDS011;5616;42.692;23.312;2023-07-09T14:02:40;4.43;;;2.75;;
11123;SDS011;5616;42.692;23.312;2023-07-09T14:05:07;4.47;;;2.85;;
11123;SDS011;5616;42.692;23.312;2023-07-09T14:07:37;4.28;;;2.50;;
11123;SDS011;5616;42.692;23.312;2023-07-09T14:10:05;2.70;;;2.30;;
11123;SDS011;5616;42.692;23.312;2023-07-09T14:12:37;4.57;;;2.92;;
11123;SDS011;5616;42.692;23.312;2023-07-09T14:15:09;4.25;;;3.10;;
11123;SDS011;5616;42.692;23.312;2023-07-09T14:17:41;6.72;;;2.80;;
11123;SDS011;5616;42.692;23.312;2023-07-09T14:20:10;5.18;;;2.60;;
11123;SDS011;5616;42.692;23.312;2023-07-09T14:22:38;2.83;;;2.58;;
11123;SDS011;5616;42.692;23.312;2023-07-09T14:25:06;5.57;;;3.00;;
11123;SDS011;5616;42.692;23.312;2023-07-09T14:27:40;2.72;;;2.50;;
11123;SDS011;5616;42.692;23.312;2023-07-09T14:30:08;5.78;;;2.72;;
11123;SDS011;5616;42.692;23.312;2023-07-09T14:32:41;4.63;;;2.40;;
11123;SDS011;5616;42.692;23.312;2023-07-09T14:35:12;2.60;;;2.40;;
11123;SDS011;5616;42.692;23.312;2023-07-09T14:37:42;6.80;;;2.70;;
11123;SDS011;5616;42.692;23.312;2023-07-09T14:40:10;4.43;;;2.90;;
11123;SDS011;5616;42.692;23.312;2023-07-09T14:42:37;3.92;;;2.50;;
11123;SDS011;5616;42.692;23.312;2023-07-09T14:45:05;3.92;;;2.53;;
11123;SDS011;5616;42.692;23.312;2023-07-09T14:47:44;3.10;;;2.80;;
11123;SDS011;5616;42.692;23.312;2023-07-09T14:50:10;3.45;;;2.85;;
11123;SDS011;5616;42.692;23.312;2023-07-09T14:52:38;3.97;;;2.90;;
11123;SDS011;5616;42.692;23.312;2023-07-09T14:55:07;2.70;;;2.50;;
11123;SDS011;5616;42.692;23.312;2023-07-09T14:57:39;2.88;;;2.47;;
11123;SDS011;5616;42.692;23.312;2023-07-09T15:00:06;6.28;;;2.70;;
11123;SDS011;5616;42.692;23.312;2023-07-09T15:02:39;3.90;;;2.60;;